Nearby METAR Reports

 

LEVT - Vitoria, Spain
Distance from station: O 10km
Actualización: 23/02/2024 04:00
Despejado
Despejado
 Viento del SO
Viento: SO 9 km/h
Temperatura: 1°C
Wind Chill: -2°C
Rocío: 0°C
Humedad: 93%
Barómetro: 1007 hPa
Resumen: Despejado
Visibility: greater than 10 km
2024/02/23 03:00 LEVT 230300Z 23005KT CAVOK 01/00 Q1007
LELO - Logrono/Agoncill, Spain
Distance from station: SSE 51km
Actualización: 23/02/2024 04:00
Despejado
Despejado
 Viento del varies
Viento: varies 4 km/h
Temperatura: 2°C
Rocío: 2°C
Humedad: 100%
Barómetro: 1008 hPa
Resumen: Despejado
Visibility: greater than 10 km
2024/02/23 03:00 LELO 230300Z AUTO VRB02KT CAVOK 02/02 Q1008
LEBB - Bilbao/Sondica, Spain
Distance from station: NNO 54km
Actualización: 23/02/2024 04:00
Parcialmente nuboso
Parcialmente nuboso
 Viento del varies
Viento: varies 2 km/h
Temperatura: 7°C
Rocío: 3°C
Humedad: 76%
Barómetro: 1008 hPa
Clouds: Parcialmente nuboso
Visibility: 10 km
Cloud details: Parcialmente nuboso 1981 m
2024/02/23 03:00 LEBB 230300Z AUTO VRB01KT 9999 SCT065 07/03 Q1008
 
LEPP - Pamplona/Noain, Spain
Distance from station: E 78km
Actualización: 23/02/2024 04:00
Despejado
Despejado
 Viento del varies
Viento: varies 2 km/h
Temperatura: 1°C
Rocío: 1°C
Humedad: 100%
Barómetro: 1007 hPa
Clouds: Despejado
Visibility: 6 km
2024/02/23 03:00 LEPP 230300Z AUTO VRB01KT 6000 NCD 01/01 Q1007
LESO - San Sebastian/Fu, Spain
Distance from station: NE 85km
Actualización: 23/02/2024 04:00
Despejado
Despejado
 Viento del SO
Viento: SO 13 km/h
Temperatura: 8°C
Wind Chill: 6°C
Rocío: 3°C
Humedad: 71%
Barómetro: 1007 hPa
Resumen: Despejado
Visibility: greater than 10 km
2024/02/23 03:00 LESO 230300Z AUTO 23007KT 190V260 CAVOK 08/03 Q1007
LEBG - Burgos/Villafria, Spain
Distance from station: SO 100km
Actualización: 23/02/2024 04:00
Parcialmente nuboso
Parcialmente nuboso
 Viento del SSO
Viento: SSO 24 km/h
Temperatura: 0°C
Wind Chill: -6°C
Rocío: -1°C
Humedad: 93%
Barómetro: 1008 hPa
Clouds: Parcialmente nuboso
Visibility: 10 km
Cloud details: Few Clouds 1097 m
Parcialmente nuboso 1524 m
2024/02/23 03:00 LEBG 230300Z AUTO 21013KT 9999 FEW036 SCT050 00/M01 Q1008
 
LFBZ - Biarritz/Anglet, France
Distance from station: NE 111km
Actualización: 23/02/2024 04:00
Thunderstorm
Thunderstorm
 Viento del SSO
Viento: SSO 9 km/h
Temperatura: 9°C
Wind Chill: 7°C
Rocío: 4°C
Humedad: 71%
Barómetro: 1006 hPa
Clouds: Thunderstorm
Visibility: 10 km
Cloud details: Parcialmente nuboso 1311 m
Muy nuboso 1524 m
Muy nuboso 3048 m
2024/02/23 03:00 LFBZ 230300Z AUTO 21005KT 180V240 9999 SCT043/// BKN050/// BKN100/// ///CB 09/04 Q1006 TEMPO 28030G50KT 1500 TSRAGS BKN012 BKN025CB
LEXJ - Santander/Paraya, Spain
Distance from station: ONO 117km
Actualización: 23/02/2024 04:00
Mist, Muy nuboso
Mist, Muy nuboso
 Viento del ONO
Viento: ONO 39 km/h, Racha: 57 km/h
Temperatura: 8°C
Wind Chill: 3°C
Rocío: 5°C
Humedad: 82%
Barómetro: 1008 hPa
Resumen: Mist
Clouds: Muy nuboso
Visibility: 5 km
Cloud details: Few Clouds 1036 m
Muy nuboso 1402 m
2024/02/23 03:00 LEXJ 230300Z AUTO 30021G31KT 5000 BR FEW034 BKN046 08/05 Q1008